Time;durP1;ratioP1;P1;durP2;ratioP2;P2;SDS_P1;SDS_P2;PMS_P1;PMS_P2;Temp;Humidity;BMP_temperature;BMP_pressure;BME280_temperature;BME280_humidity;BME280_pressure;Samples;Min_cycle;Max_cycle;Signal;HPM_P1;HPM_P2
2021/11/17 02:27:56;;;;;;;37.90;22.90;;;10.20;99.90;;;;;;4926122;29;20146;-87
2021/11/17 02:31:09;;;;;;;31.08;21.13;;;10.10;99.90;;;;;;4925270;29;20032;-86
2021/11/17 02:34:01;;;;;;;36.28;20.60;;;10.00;99.90;;;;;;4929401;29;20102;-90
2021/11/17 02:37:20;;;;;;;29.42;19.75;;;10.00;99.90;;;;;;4943554;28;20098;-91
2021/11/17 02:40:31;;;;;;;32.05;21.77;;;10.10;99.90;;;;;;4887014;29;20054;-85
2021/11/17 02:43:23;;;;;;;31.67;21.73;;;10.20;99.90;;;;;;4901462;29;20047;-85
2021/11/17 02:46:13;;;;;;;33.40;21.77;;;10.20;99.90;;;;;;4925336;29;20136;-86
2021/11/17 02:48:53;;;;;;;33.30;20.35;;;10.20;99.90;;;;;;4939279;29;20052;-83
2021/11/17 02:51:59;;;;;;;29.03;19.33;;;10.20;99.90;;;;;;4938895;28;20154;-86
2021/11/17 02:54:47;;;;;;;29.88;19.38;;;10.10;99.90;;;;;;4955758;29;20491;-86
2021/11/17 02:57:49;;;;;;;31.90;18.70;;;10.20;99.90;;;;;;4956225;29;20130;-83
2021/11/17 03:00:20;;;;;;;28.40;19.45;;;10.10;99.90;;;;;;4940396;29;20436;-82
2021/11/17 03:03:19;;;;;;;31.85;20.40;;;10.20;99.90;;;;;;4953963;29;20039;-84
2021/11/17 03:06:05;;;;;;;26.00;17.67;;;10.10;99.90;;;;;;4940317;29;20065;-85
2021/11/17 03:08:51;;;;;;;31.90;19.70;;;10.20;99.90;;;;;;4955022;29;20039;-80
2021/11/17 03:12:00;;;;;;;29.85;20.05;;;10.10;99.90;;;;;;4956113;29;20474;-87
2021/11/17 03:14:52;;;;;;;31.05;19.00;;;10.10;99.90;;;;;;4934181;29;20079;-82
2021/11/17 03:17:34;;;;;;;24.05;17.23;;;10.20;99.90;;;;;;4938722;29;20105;-87
2021/11/17 03:20:32;;;;;;;28.13;17.27;;;10.20;99.90;;;;;;4938740;29;20094;-82
2021/11/17 03:23:15;;;;;;;30.48;17.48;;;10.20;99.90;;;;;;4938934;29;20079;-82
2021/11/17 03:26:28;;;;;;;26.67;17.27;;;10.20;99.90;;;;;;4955569;29;20118;-89
2021/11/17 03:29:23;;;;;;;27.10;18.40;;;10.20;99.90;;;;;;4915062;29;20439;-85
2021/11/17 03:32:31;;;;;;;30.55;17.75;;;10.20;99.90;;;;;;4956169;29;20435;-84
2021/11/17 03:35:33;;;;;;;28.38;17.73;;;10.20;99.90;;;;;;4907276;29;20118;-82
2021/11/17 03:38:14;;;;;;;29.58;16.65;;;10.20;99.90;;;;;;4931980;23;20556;-84
2021/11/17 03:41:02;;;;;;;28.52;16.67;;;10.20;99.90;;;;;;4930090;29;20115;-85
2021/11/17 03:43:32;;;;;;;26.77;17.08;;;10.20;99.90;;;;;;4948206;29;20075;-89
2021/11/17 03:46:42;;;;;;;27.65;17.45;;;10.20;99.90;;;;;;4973000;23;20079;-90
2021/11/17 03:49:15;;;;;;;24.58;17.20;;;10.20;99.90;;;;;;4956652;28;20258;-89
2021/11/17 03:52:02;;;;;;;26.13;17.88;;;10.10;99.90;;;;;;4958313;28;20418;-85
2021/11/17 03:54:43;;;;;;;26.13;17.25;;;10.10;99.90;;;;;;4956223;28;20074;-82
2021/11/17 03:57:31;;;;;;;30.20;18.55;;;10.20;99.90;;;;;;4956665;28;20054;-86
2021/11/17 04:00:24;;;;;;;25.42;17.27;;;10.10;99.90;;;;;;4926348;28;20082;-84
2021/11/17 04:03:13;;;;;;;27.67;18.80;;;10.10;99.90;;;;;;4973919;28;20118;-83
2021/11/17 04:05:52;;;;;;;30.17;18.52;;;10.00;99.90;;;;;;4971946;28;20046;-81
2021/11/17 04:08:40;;;;;;;28.20;17.38;;;9.90;99.90;;;;;;4972023;28;20150;-83
2021/11/17 04:11:10;;;;;;;28.05;17.83;;;9.90;99.90;;;;;;4972995;28;20113;-84
2021/11/17 04:13:47;;;;;;;30.63;18.65;;;10.00;99.90;;;;;;4973511;28;20049;-86
2021/11/17 04:16:44;;;;;;;27.40;17.13;;;10.00;99.90;;;;;;4925651;28;20090;-83
2021/11/17 04:19:27;;;;;;;25.20;16.85;;;10.00;99.90;;;;;;4939336;28;20054;-84
2021/11/17 04:22:16;;;;;;;25.65;17.73;;;9.90;99.90;;;;;;4969126;28;20432;-81
2021/11/17 04:24:46;;;;;;;26.70;17.02;;;9.90;99.90;;;;;;4954762;29;20098;-85
2021/11/17 04:27:20;;;;;;;27.60;17.65;;;9.80;99.90;;;;;;4937660;29;20105;-88
2021/11/17 04:30:18;;;;;;;27.77;18.27;;;9.80;99.90;;;;;;4937839;29;20400;-81
2021/11/17 04:32:57;;;;;;;26.92;17.25;;;9.90;99.90;;;;;;4952672;29;20050;-81
2021/11/17 04:35:40;;;;;;;22.88;15.75;;;9.90;99.90;;;;;;4953920;29;20118;-80
2021/11/17 04:38:44;;;;;;;29.90;17.50;;;10.00;99.90;;;;;;4936618;29;20503;-82
2021/11/17 04:41:39;;;;;;;27.25;17.77;;;9.90;99.90;;;;;;4936687;29;20075;-81
2021/11/17 04:44:10;;;;;;;26.95;16.83;;;10.00;99.90;;;;;;4953257;29;20460;-80
2021/11/17 04:46:50;;;;;;;26.55;17.60;;;10.00;99.90;;;;;;4936726;29;20074;-79
2021/11/17 04:49:23;;;;;;;23.20;16.35;;;10.00;99.90;;;;;;4936560;29;20110;-82
2021/11/17 04:52:28;;;;;;;26.77;16.73;;;10.00;99.90;;;;;;4936289;29;20051;-80
2021/11/17 04:55:23;;;;;;;29.00;17.27;;;10.00;99.90;;;;;;4921607;29;20130;-80
2021/11/17 04:58:08;;;;;;;25.23;15.52;;;10.10;99.90;;;;;;4953572;29;20058;-86
2021/11/17 05:00:46;;;;;;;25.92;17.05;;;10.00;99.90;;;;;;4921454;29;20384;-88
2021/11/17 05:03:41;;;;;;;24.35;16.08;;;10.00;99.90;;;;;;4954214;29;20050;-87
2021/11/17 05:06:29;;;;;;;24.10;16.10;;;10.00;99.90;;;;;;4923561;29;20110;-86
2021/11/17 05:09:21;;;;;;;23.63;16.40;;;10.10;99.90;;;;;;4907354;29;20171;-89
2021/11/17 05:12:07;;;;;;;26.45;17.40;;;10.20;99.90;;;;;;4938046;29;20055;-88
2021/11/17 05:15:07;;;;;;;29.83;18.23;;;10.10;99.90;;;;;;4907783;29;20133;-88
2021/11/17 05:17:34;;;;;;;27.48;18.60;;;10.20;99.90;;;;;;4922646;29;20436;-87
2021/11/17 05:20:25;;;;;;;28.95;17.63;;;10.20;99.90;;;;;;4926501;29;20047;-90
2021/11/17 05:23:13;;;;;;;24.50;16.55;;;10.20;99.90;;;;;;4926624;29;20138;-86
2021/11/17 05:29:35;;;;;;;26.40;18.43;;;10.20;99.90;;;;;;4930498;29;20082;-88
2021/11/17 05:32:11;;;;;;;29.38;18.02;;;10.10;99.90;;;;;;4932469;29;20329;-83
2021/11/17 05:34:56;;;;;;;33.38;17.40;;;10.10;99.90;;;;;;4956737;29;20066;-82
2021/11/17 05:37:42;;;;;;;31.05;18.13;;;9.50;99.90;;;;;;4940018;29;20131;-82
2021/11/17 05:40:22;;;;;;;24.73;16.17;;;9.70;99.90;;;;;;4956394;29;20440;-84
2021/11/17 05:43:13;;;;;;;22.02;15.45;;;9.70;99.90;;;;;;4939526;29;20062;-79
2021/11/17 05:45:53;;;;;;;24.80;16.42;;;9.60;99.90;;;;;;4952465;29;20076;-81
2021/11/17 05:48:35;;;;;;;25.85;15.18;;;9.90;99.90;;;;;;4937225;29;20059;-86
2021/11/17 05:51:26;;;;;;;25.20;16.00;;;10.00;99.90;;;;;;4904849;29;20103;-84
2021/11/17 05:54:21;;;;;;;38.95;23.10;;;10.10;99.90;;;;;;4941113;29;20462;-88
2021/11/17 05:57:06;;;;;;;46.58;28.65;;;10.30;99.90;;;;;;4922912;29;20086;-83
2021/11/17 05:59:46;;;;;;;77.25;42.28;;;10.40;99.90;;;;;;4937920;29;20454;-85
2021/11/17 06:02:22;;;;;;;43.78;26.85;;;10.40;99.90;;;;;;4939308;29;20079;-81
2021/11/17 06:04:49;;;;;;;39.72;25.83;;;10.40;99.90;;;;;;4923583;29;20051;-83
2021/11/17 06:11:39;;;;;;;31.02;18.85;;;10.40;99.90;;;;;;4937436;29;20103;-82
2021/11/17 06:14:24;;;;;;;27.98;15.95;;;10.30;99.90;;;;;;4919976;29;20051;-82
2021/11/17 06:17:05;;;;;;;23.77;14.80;;;10.40;99.90;;;;;;4936504;29;20125;-83
2021/11/17 06:19:44;;;;;;;20.52;13.93;;;10.20;99.90;;;;;;4919187;29;20135;-80
2021/11/17 06:22:12;;;;;;;24.13;15.35;;;10.20;99.90;;;;;;4936305;29;20055;-81
2021/11/17 06:24:40;;;;;;;24.98;15.57;;;10.40;99.90;;;;;;4934665;29;20040;-76
2021/11/17 06:27:14;;;;;;;26.17;14.80;;;10.40;99.90;;;;;;4934243;29;20452;-83
2021/11/17 06:29:45;;;;;;;18.80;12.85;;;10.50;99.90;;;;;;4934837;29;20055;-80
2021/11/17 06:32:13;;;;;;;21.05;12.85;;;10.50;99.90;;;;;;4919728;29;20421;-80
2021/11/17 06:34:46;;;;;;;23.08;14.05;;;10.50;99.90;;;;;;4935238;29;20047;-80
2021/11/17 06:37:17;;;;;;;20.45;14.05;;;10.60;99.90;;;;;;4919874;29;20658;-83
2021/11/17 06:39:47;;;;;;;36.30;21.42;;;10.60;99.90;;;;;;4937354;29;20123;-83
2021/11/17 06:42:17;;;;;;;;;;;10.70;99.90;;;;;;4936923;29;20463;-82
2021/11/17 06:44:45;;;;;;;32.00;18.80;;;10.80;99.90;;;;;;4936671;29;19978;-85
2021/11/17 06:47:13;;;;;;;22.25;14.52;;;10.80;99.90;;;;;;4937321;29;20140;-86
2021/11/17 06:49:40;;;;;;;21.13;13.25;;;10.70;99.90;;;;;;4938029;29;20074;-83
2021/11/17 06:52:11;;;;;;;;;;;10.60;99.90;;;;;;4937453;29;20054;-79
2021/11/17 06:54:38;;;;;;;20.25;13.13;;;10.60;99.90;;;;;;4937856;29;20266;-82
2021/11/17 06:57:06;;;;;;;19.10;13.52;;;10.60;99.90;;;;;;4938204;29;20044;-81
2021/11/17 06:59:33;;;;;;;20.27;12.60;;;10.70;99.90;;;;;;4937261;29;20132;-82
2021/11/17 07:02:05;;;;;;;19.92;13.70;;;10.70;99.90;;;;;;4936780;29;20134;-81
2021/11/17 07:04:35;;;;;;;19.92;13.80;;;10.70;99.90;;;;;;4920182;29;20048;-79
2021/11/17 07:07:04;;;;;;;18.75;13.18;;;10.80;99.90;;;;;;4936253;29;20071;-84
2021/11/17 07:09:31;;;;;;;20.15;14.20;;;10.80;99.90;;;;;;4936069;29;20050;-80
2021/11/17 07:11:58;;;;;;;20.98;13.73;;;10.80;99.90;;;;;;4918575;29;20058;-81
2021/11/17 07:14:26;;;;;;;19.25;13.50;;;10.80;99.90;;;;;;4935769;29;20419;-81
2021/11/17 07:16:54;;;;;;;19.95;13.55;;;10.90;99.90;;;;;;4918216;29;20460;-83
2021/11/17 07:19:24;;;;;;;20.25;13.48;;;10.80;99.90;;;;;;4935585;29;20071;-81
2021/11/17 07:21:58;;;;;;;18.10;12.43;;;10.90;99.90;;;;;;4934710;29;20054;-84
2021/11/17 07:24:27;;;;;;;21.45;12.25;;;10.80;99.90;;;;;;4918594;29;20039;-81
2021/11/17 07:26:55;;;;;;;18.80;12.80;;;10.80;99.90;;;;;;4935330;29;20058;-81
2021/11/17 07:29:23;;;;;;;26.55;13.68;;;10.80;99.90;;;;;;4935297;29;20036;-87
2021/11/17 07:31:50;;;;;;;19.60;12.77;;;10.80;99.90;;;;;;4935734;29;20039;-81
2021/11/17 07:34:19;;;;;;;21.35;13.35;;;10.90;99.90;;;;;;4935954;29;20044;-81
2021/11/17 07:36:47;;;;;;;22.80;14.10;;;10.90;99.90;;;;;;4918056;29;20043;-81
2021/11/17 07:39:17;;;;;;;18.88;13.27;;;10.80;99.90;;;;;;4918140;29;20042;-81
2021/11/17 07:41:47;;;;;;;22.10;12.68;;;10.90;99.90;;;;;;4917739;29;20131;-81
2021/11/17 07:44:17;;;;;;;24.13;14.65;;;11.00;99.90;;;;;;4935280;29;20408;-84
2021/11/17 07:46:46;;;;;;;19.90;13.77;;;11.00;99.90;;;;;;4922823;29;20075;-78
2021/11/17 07:49:15;;;;;;;20.30;13.70;;;10.90;99.90;;;;;;4953719;29;20122;-80
2021/11/17 07:51:43;;;;;;;20.83;12.88;;;11.00;99.90;;;;;;4921739;29;20039;-82
2021/11/17 07:54:11;;;;;;;21.30;13.80;;;11.00;99.90;;;;;;4955001;29;20563;-81
2021/11/17 07:56:41;;;;;;;28.05;14.45;;;11.00;99.90;;;;;;4937845;29;20442;-80
2021/11/17 07:59:12;;;;;;;25.13;13.95;;;11.00;99.90;;;;;;4954595;29;20043;-83
2021/11/17 08:01:39;;;;;;;21.10;14.30;;;11.10;99.90;;;;;;4952503;29;20153;-82
2021/11/17 08:04:08;;;;;;;21.17;15.00;;;11.10;99.90;;;;;;4954437;29;20069;-83
2021/11/17 08:06:35;;;;;;;23.33;15.35;;;11.10;99.90;;;;;;4953991;29;20061;-87
2021/11/17 08:09:03;;;;;;;24.77;16.20;;;11.20;99.90;;;;;;4937196;29;20570;-80
2021/11/17 08:11:32;;;;;;;21.65;13.70;;;11.20;99.90;;;;;;4953980;29;20419;-85
2021/11/17 08:14:00;;;;;;;28.85;15.60;;;11.20;99.90;;;;;;4921992;29;20107;-89
2021/11/17 08:16:27;;;;;;;26.45;16.27;;;11.30;99.90;;;;;;4954817;29;20049;-81
2021/11/17 08:18:55;;;;;;;25.30;16.55;;;11.40;99.90;;;;;;4921758;29;20059;-85
2021/11/17 08:21:22;;;;;;;30.70;16.38;;;11.50;99.90;;;;;;4954690;28;20039;-83
2021/11/17 08:23:50;;;;;;;22.35;15.38;;;11.60;99.90;;;;;;4955521;29;20047;-86
2021/11/17 08:26:20;;;;;;;24.88;13.93;;;11.60;99.90;;;;;;4938227;29;20035;-83
2021/11/17 08:28:48;;;;;;;20.70;13.18;;;11.70;99.90;;;;;;4938394;29;20400;-83
2021/11/17 08:31:16;;;;;;;16.50;12.05;;;11.70;99.90;;;;;;4938238;29;20043;-82
2021/11/17 08:33:44;;;;;;;21.10;12.40;;;11.70;99.90;;;;;;4954356;29;20066;-82
2021/11/17 08:36:12;;;;;;;19.45;12.68;;;11.70;99.90;;;;;;4935866;29;20053;-82
2021/11/17 08:38:40;;;;;;;20.60;13.02;;;11.80;99.90;;;;;;4937478;29;20095;-84
2021/11/17 08:41:11;;;;;;;24.15;14.13;;;12.00;99.90;;;;;;4921051;29;20559;-82
2021/11/17 08:43:39;;;;;;;;;;;12.00;99.90;;;;;;4955159;29;20047;-84
2021/11/17 08:46:06;;;;;;;22.00;13.73;;;11.90;99.90;;;;;;4922534;29;19929;-85
2021/11/17 08:48:35;;;;;;;21.50;13.77;;;11.80;99.90;;;;;;4936558;29;20366;-82
2021/11/17 08:51:06;;;;;;;24.17;16.30;;;11.70;99.90;;;;;;4940640;29;20071;-84
2021/11/17 08:53:36;;;;;;;24.70;16.63;;;11.70;99.90;;;;;;4942981;29;20039;-80
2021/11/17 08:56:07;;;;;;;25.25;14.60;;;11.70;99.90;;;;;;4942723;29;20089;-77
2021/11/17 08:58:34;;;;;;;23.80;13.98;;;11.70;99.90;;;;;;4957729;29;20043;-81
2021/11/17 09:01:03;;;;;;;20.33;13.15;;;11.70;99.90;;;;;;4944599;29;20050;-91
2021/11/17 09:03:35;;;;;;;21.10;13.45;;;11.70;99.90;;;;;;4916709;29;20059;-85
2021/11/17 09:06:04;;;;;;;21.45;12.38;;;11.80;99.90;;;;;;4944225;29;20055;-84
2021/11/17 09:08:53;;;;;;;20.27;12.20;;;11.70;99.90;;;;;;4925752;29;20051;-85
2021/11/17 09:11:59;;;;;;;19.50;12.52;;;11.80;99.90;;;;;;4903934;29;20187;-81
2021/11/17 09:14:27;;;;;;;21.13;12.60;;;11.90;99.90;;;;;;4959987;28;20139;-85
2021/11/17 09:16:58;;;;;;;18.45;11.38;;;12.00;99.90;;;;;;4923511;29;20044;-84
2021/11/17 09:19:26;;;;;;;18.63;12.38;;;12.00;99.90;;;;;;4936715;29;20126;-83
2021/11/17 09:21:54;;;;;;;17.95;11.88;;;12.00;99.90;;;;;;4948772;29;20121;-82
2021/11/17 09:24:24;;;;;;;20.42;12.60;;;12.00;99.90;;;;;;4939249;28;20141;-82
2021/11/17 09:26:54;;;;;;;22.52;12.50;;;12.00;99.90;;;;;;4942859;29;20043;-83
2021/11/17 09:29:24;;;;;;;19.20;11.75;;;12.10;99.90;;;;;;4941676;28;20422;-82
2021/11/17 09:31:52;;;;;;;16.98;11.45;;;12.00;99.90;;;;;;4926044;29;20140;-82
2021/11/17 09:34:20;;;;;;;20.15;11.80;;;12.10;99.90;;;;;;4940189;29;20082;-86
2021/11/17 09:36:50;;;;;;;17.23;11.20;;;12.20;99.90;;;;;;4926168;29;20050;-86
2021/11/17 09:39:31;;;;;;;19.83;12.02;;;12.30;99.90;;;;;;4941649;29;20066;-82
2021/11/17 09:41:59;;;;;;;17.13;11.10;;;12.60;99.90;;;;;;4939128;29;20491;-85
2021/11/17 09:44:40;;;;;;;18.05;11.55;;;12.50;99.90;;;;;;4923854;29;20055;-83
2021/11/17 09:47:16;;;;;;;17.08;11.80;;;12.40;99.90;;;;;;4923035;29;20142;-83
2021/11/17 09:50:02;;;;;;;19.92;11.77;;;12.50;99.90;;;;;;4922428;29;20107;-82
2021/11/17 09:52:35;;;;;;;20.20;10.88;;;12.70;99.90;;;;;;4939305;29;20095;-86
2021/11/17 09:55:17;;;;;;;21.40;12.00;;;12.50;99.90;;;;;;4939518;29;20395;-85
2021/11/17 09:57:49;;;;;;;18.30;10.65;;;12.70;99.90;;;;;;4938705;29;20416;-82
2021/11/17 10:00:22;;;;;;;18.23;11.98;;;12.80;99.90;;;;;;4938684;29;20055;-81
2021/11/17 10:03:08;;;;;;;21.02;10.65;;;12.70;99.90;;;;;;4937197;29;20471;-80
2021/11/17 10:14:29;;;;;;;19.40;10.38;;;12.70;99.90;;;;;;4915367;29;20059;-85
2021/11/17 10:16:57;;;;;;;;;;;12.60;99.90;;;;;;4954782;29;20058;-83
2021/11/17 10:19:32;;;;;;;17.88;11.15;;;12.50;99.90;;;;;;4955569;29;19948;-84
2021/11/17 10:22:07;;;;;;;18.15;11.07;;;12.50;99.90;;;;;;4938300;29;20130;-80
2021/11/17 10:24:46;;;;;;;15.98;9.90;;;12.60;99.90;;;;;;4922446;29;20061;-82
2021/11/17 10:27:23;;;;;;;16.13;9.88;;;12.30;99.90;;;;;;4953513;29;21598;-85
2021/11/17 10:30:05;;;;;;;14.38;9.88;;;12.20;99.90;;;;;;4938524;29;20130;-82
2021/11/17 10:32:45;;;;;;;17.20;10.32;;;12.30;99.90;;;;;;4955377;29;20542;-82
2021/11/17 10:35:12;;;;;;;15.98;10.52;;;12.30;99.90;;;;;;4955434;29;20091;-82
2021/11/17 10:37:47;;;;;;;17.70;10.40;;;12.40;99.90;;;;;;4939198;29;20051;-81
2021/11/17 10:40:22;;;;;;;15.95;10.00;;;12.30;99.90;;;;;;4960142;28;20070;-80
2021/11/17 10:43:19;;;;;;;17.23;9.48;;;12.30;99.90;;;;;;4957221;28;20047;-83
2021/11/17 10:46:17;;;;;;;18.65;9.93;;;12.40;99.90;;;;;;4975075;28;20046;-81
2021/11/17 10:48:53;;;;;;;17.23;10.30;;;12.40;99.90;;;;;;4974654;28;20050;-82
2021/11/17 10:51:32;;;;;;;17.38;10.57;;;12.50;99.90;;;;;;4975206;28;20424;-80
2021/11/17 10:54:07;;;;;;;16.15;10.18;;;12.50;99.90;;;;;;4964565;28;20057;-81
2021/11/17 10:56:41;;;;;;;18.52;10.02;;;12.50;99.90;;;;;;4923109;29;20047;-82
2021/11/17 10:59:08;;;;;;;17.58;10.00;;;12.60;99.90;;;;;;4954556;29;20098;-79
2021/11/17 11:01:43;;;;;;;18.20;10.88;;;12.70;99.90;;;;;;4955306;29;20035;-80
2021/11/17 11:04:22;;;;;;;17.73;11.02;;;12.80;99.90;;;;;;4948384;29;20118;-77
2021/11/17 11:06:56;;;;;;;17.90;11.45;;;12.80;99.90;;;;;;4934180;29;20046;-80
2021/11/17 11:09:43;;;;;;;21.63;11.05;;;12.90;99.90;;;;;;4947510;29;20426;-78
2021/11/17 11:12:15;;;;;;;16.08;10.18;;;13.00;99.90;;;;;;4954041;29;20075;-80
2021/11/17 11:14:53;;;;;;;15.90;9.98;;;12.90;99.90;;;;;;4953390;28;20047;-79
2021/11/17 11:17:30;;;;;;;18.60;12.02;;;12.90;99.90;;;;;;4954292;29;20071;-81
2021/11/17 11:20:16;;;;;;;17.35;9.98;;;12.90;99.90;;;;;;4954029;29;20118;-78
2021/11/17 11:23:04;;;;;;;17.13;10.07;;;13.00;99.90;;;;;;4953999;28;20406;-80
2021/11/17 11:25:41;;;;;;;19.33;10.60;;;13.20;99.90;;;;;;4954090;29;20114;-77
2021/11/17 11:28:20;;;;;;;17.55;10.52;;;13.20;99.90;;;;;;4953869;29;20051;-80
2021/11/17 11:31:11;;;;;;;20.65;9.57;;;13.20;99.90;;;;;;4921513;29;20047;-78
2021/11/17 11:33:53;;;;;;;18.27;10.43;;;13.20;99.90;;;;;;4953716;29;20051;-79
2021/11/17 11:36:47;;;;;;;15.88;10.13;;;13.20;99.90;;;;;;4953154;29;20067;-75
2021/11/17 11:39:14;;;;;;;20.80;10.32;;;13.20;99.90;;;;;;4948480;29;20455;-78
2021/11/17 11:42:06;;;;;;;16.33;10.25;;;13.10;99.90;;;;;;4953740;29;20035;-76
2021/11/17 11:44:35;;;;;;;12.63;9.20;;;13.00;99.90;;;;;;4953902;29;20055;-78
2021/11/17 11:47:08;;;;;;;14.38;9.98;;;13.00;99.90;;;;;;4953619;29;20051;-78
2021/11/17 11:49:47;;;;;;;21.33;11.05;;;13.00;99.90;;;;;;4944094;29;20070;-77
2021/11/17 11:52:23;;;;;;;15.20;10.32;;;13.10;99.90;;;;;;4953842;29;20108;-79
2021/11/17 11:54:53;;;;;;;16.35;10.07;;;13.10;99.90;;;;;;4953146;29;20078;-80
2021/11/17 11:57:24;;;;;;;18.63;11.20;;;13.20;99.90;;;;;;4936371;29;20349;-80
2021/11/17 12:00:08;;;;;;;18.60;10.18;;;13.20;99.90;;;;;;4953466;29;20393;-80
2021/11/17 12:03:00;;;;;;;22.58;11.13;;;13.40;99.90;;;;;;4935901;29;20134;-81
2021/11/17 12:05:41;;;;;;;17.52;10.38;;;13.50;99.90;;;;;;4952840;29;20041;-79
2021/11/17 12:08:42;;;;;;;22.90;11.98;;;13.80;99.90;;;;;;4952736;29;20459;-79
2021/11/17 12:11:14;;;;;;;18.60;10.98;;;14.10;99.90;;;;;;4949518;29;20055;-80
2021/11/17 12:14:03;;;;;;;23.25;11.18;;;14.40;99.90;;;;;;4950054;29;20078;-81
2021/11/17 12:16:46;;;;;;;17.42;10.63;;;14.50;99.90;;;;;;4949743;29;20050;-82
2021/11/17 12:19:34;;;;;;;19.50;10.25;;;14.50;99.90;;;;;;4950206;29;20503;-80
2021/11/17 12:22:08;;;;;;;14.70;9.93;;;14.70;99.90;;;;;;4951653;28;20054;-79
2021/11/17 12:24:42;;;;;;;14.75;9.32;;;14.60;99.90;;;;;;4934503;28;20126;-79
2021/11/17 12:27:37;;;;;;;13.82;9.02;;;14.60;99.90;;;;;;4951710;29;20085;-80
2021/11/17 12:30:29;;;;;;;15.07;10.38;;;14.70;99.90;;;;;;4933312;29;20146;-81
2021/11/17 12:33:02;;;;;;;13.88;9.38;;;14.00;99.90;;;;;;4936448;29;20043;-79
2021/11/17 12:35:41;;;;;;;16.13;10.82;;;13.60;99.90;;;;;;4953330;29;20118;-80
2021/11/17 12:38:16;;;;;;;18.10;11.05;;;13.50;99.90;;;;;;4936296;29;20131;-82
2021/11/17 12:40:52;;;;;;;16.67;10.23;;;13.50;99.90;;;;;;4949011;29;20138;-82
2021/11/17 12:44:00;;;;;;;16.48;10.65;;;13.50;99.90;;;;;;4949401;29;20403;-83
2021/11/17 12:46:49;;;;;;;18.48;11.27;;;13.50;99.90;;;;;;4934750;29;20052;-81
2021/11/17 12:49:25;;;;;;;24.45;12.57;;;13.40;99.90;;;;;;4950964;29;20055;-82
2021/11/17 12:52:13;;;;;;;26.45;13.73;;;13.40;99.90;;;;;;4951912;29;20043;-82
2021/11/17 12:54:52;;;;;;;18.13;10.73;;;13.50;99.90;;;;;;4967682;28;20042;-83
2021/11/17 12:57:33;;;;;;;20.13;11.15;;;13.50;99.90;;;;;;4953409;29;20040;-80
2021/11/17 13:00:21;;;;;;;17.70;11.23;;;13.40;99.90;;;;;;4953466;29;20348;-81
2021/11/17 13:02:48;;;;;;;20.75;11.15;;;13.30;99.90;;;;;;4951560;28;20521;-82
2021/11/17 13:05:28;;;;;;;16.98;10.15;;;13.30;99.90;;;;;;4953194;29;20062;-81
2021/11/17 13:07:58;;;;;;;16.77;10.60;;;13.30;99.90;;;;;;4953227;29;20407;-81
2021/11/17 13:10:50;;;;;;;16.58;10.65;;;13.20;99.90;;;;;;4951757;29;20045;-82
2021/11/17 13:13:24;;;;;;;19.63;11.43;;;13.20;99.90;;;;;;4952224;28;20435;-81
2021/11/17 13:16:06;;;;;;;17.08;11.77;;;13.30;99.90;;;;;;4935905;29;20114;-81
2021/11/17 13:18:44;;;;;;;19.23;12.05;;;13.30;99.90;;;;;;4951622;29;20222;-80
2021/11/17 13:21:28;;;;;;;16.02;10.73;;;13.30;99.90;;;;;;4951541;28;20075;-83
2021/11/17 13:24:04;;;;;;;22.05;12.25;;;13.40;99.90;;;;;;4951457;29;20055;-82
2021/11/17 13:26:40;;;;;;;20.58;12.15;;;13.40;99.90;;;;;;4952723;29;20372;-81
2021/11/17 13:29:16;;;;;;;16.90;11.27;;;13.40;99.90;;;;;;4952152;29;20466;-79
2021/11/17 13:31:45;;;;;;;20.73;11.73;;;13.40;99.90;;;;;;4952086;29;20047;-81
2021/11/17 13:34:28;;;;;;;20.95;11.70;;;13.50;99.90;;;;;;4967982;28;20400;-82
2021/11/17 13:37:13;;;;;;;25.25;13.50;;;13.40;99.90;;;;;;4946125;29;20386;-81
2021/11/17 13:39:40;;;;;;;20.10;13.68;;;13.40;99.90;;;;;;4955451;29;20130;-83
2021/11/17 13:42:08;;;;;;;20.15;12.75;;;13.50;99.90;;;;;;4956994;29;20031;-82
2021/11/17 13:44:36;;;;;;;22.65;12.30;;;13.50;99.90;;;;;;4956727;29;20122;-80
2021/11/17 13:47:21;;;;;;;21.55;12.35;;;13.40;99.90;;;;;;4939386;29;20051;-83
2021/11/17 13:49:53;;;;;;;22.80;11.88;;;13.40;99.90;;;;;;4939701;29;20051;-81
2021/11/17 13:52:31;;;;;;;22.77;12.10;;;13.30;99.90;;;;;;4956690;29;20424;-84
2021/11/17 13:55:01;;;;;;;21.48;12.15;;;13.40;99.90;;;;;;4956284;29;20043;-80
2021/11/17 13:57:28;;;;;;;19.75;10.85;;;13.40;99.90;;;;;;4956399;29;20047;-81
2021/11/17 13:59:56;;;;;;;20.02;11.02;;;13.40;99.90;;;;;;4923804;29;20492;-82
2021/11/17 14:02:24;;;;;;;18.95;10.50;;;13.40;99.90;;;;;;4938261;29;20468;-80
2021/11/17 14:04:51;;;;;;;19.25;12.13;;;13.40;99.90;;;;;;4939444;29;20083;-82
2021/11/17 14:07:21;;;;;;;15.52;10.45;;;13.30;99.90;;;;;;4956125;29;20035;-81
2021/11/17 14:09:48;;;;;;;19.80;11.20;;;13.40;99.90;;;;;;4938606;29;20126;-81
2021/11/17 14:12:16;;;;;;;18.52;11.27;;;13.40;99.90;;;;;;4938795;29;20042;-80
2021/11/17 14:14:43;;;;;;;19.38;11.57;;;13.30;99.90;;;;;;4923529;29;20062;-81
2021/11/17 14:17:11;;;;;;;20.27;10.90;;;13.30;99.90;;;;;;4938589;29;20491;-83
2021/11/17 14:19:39;;;;;;;19.55;11.88;;;13.20;99.90;;;;;;4954757;29;20398;-82
2021/11/17 14:22:06;;;;;;;20.55;11.38;;;13.20;99.90;;;;;;4955765;28;20083;-82
2021/11/17 14:24:34;;;;;;;19.90;12.55;;;13.20;99.90;;;;;;4955836;29;20074;-82
2021/11/17 14:27:08;;;;;;;20.13;11.25;;;13.10;99.90;;;;;;4938236;29;20569;-82
2021/11/17 14:29:46;;;;;;;18.35;11.32;;;13.20;99.90;;;;;;4955829;29;20049;-83
2021/11/17 14:32:24;;;;;;;20.08;11.43;;;13.20;99.90;;;;;;4955321;29;20046;-85
2021/11/17 14:34:53;;;;;;;15.32;11.05;;;13.20;99.90;;;;;;4938672;29;20082;-83
2021/11/17 14:37:20;;;;;;;19.83;11.50;;;13.20;99.90;;;;;;4938648;29;20039;-81
2021/11/17 14:39:48;;;;;;;22.98;12.25;;;13.10;99.90;;;;;;4955416;29;20470;-83
2021/11/17 14:42:16;;;;;;;19.90;12.73;;;13.10;99.90;;;;;;4955287;29;20039;-82
2021/11/17 14:44:44;;;;;;;20.55;12.20;;;13.10;99.90;;;;;;4955651;29;20047;-81
2021/11/17 14:47:11;;;;;;;21.67;11.93;;;13.10;99.90;;;;;;4954966;29;20051;-82
2021/11/17 14:49:39;;;;;;;16.25;10.95;;;13.10;99.90;;;;;;4954845;28;20047;-83
2021/11/17 14:52:15;;;;;;;20.00;13.32;;;13.10;99.90;;;;;;4955879;29;20452;-83
2021/11/17 14:54:43;;;;;;;22.63;11.95;;;13.00;99.90;;;;;;4955440;29;20062;-82
2021/11/17 14:57:15;;;;;;;19.65;11.60;;;13.00;99.90;;;;;;4954786;29;20051;-82
2021/11/17 14:59:42;;;;;;;20.88;13.05;;;13.00;99.90;;;;;;4953961;29;20051;-82
2021/11/17 15:02:10;;;;;;;19.67;13.13;;;12.90;99.90;;;;;;4937970;29;20036;-81
2021/11/17 15:04:38;;;;;;;22.17;13.50;;;12.90;99.90;;;;;;4938195;29;20102;-84
2021/11/17 15:07:09;;;;;;;22.00;12.38;;;12.80;99.90;;;;;;4938110;29;20138;-82
2021/11/17 15:09:37;;;;;;;19.92;12.57;;;12.80;99.90;;;;;;4954743;29;20470;-81
2021/11/17 15:12:18;;;;;;;18.85;12.82;;;12.70;99.90;;;;;;4937798;29;20053;-81
2021/11/17 15:14:47;;;;;;;22.38;13.60;;;12.70;99.90;;;;;;4954821;29;20054;-83
2021/11/17 15:17:15;;;;;;;19.25;11.93;;;12.60;99.90;;;;;;4954735;29;20049;-81
2021/11/17 15:19:43;;;;;;;17.70;12.23;;;12.60;99.90;;;;;;4954622;29;20126;-82
2021/11/17 15:22:10;;;;;;;22.67;13.68;;;12.60;99.90;;;;;;4954232;28;20054;-81
2021/11/17 15:24:39;;;;;;;19.13;11.85;;;12.60;99.90;;;;;;4954705;29;20098;-82
2021/11/17 15:27:30;;;;;;;20.88;13.60;;;12.60;99.90;;;;;;4954500;29;20122;-81
2021/11/17 15:30:00;;;;;;;23.48;14.10;;;12.50;99.90;;;;;;4937552;29;20071;-81
2021/11/17 15:32:27;;;;;;;23.10;13.63;;;12.60;99.90;;;;;;4954310;29;20447;-81
2021/11/17 15:34:55;;;;;;;19.85;13.35;;;12.60;99.90;;;;;;4954033;29;20051;-83
2021/11/17 15:37:22;;;;;;;23.23;12.93;;;12.60;99.90;;;;;;4954532;29;20066;-83
2021/11/17 15:39:49;;;;;;;19.75;13.43;;;12.60;99.90;;;;;;4937496;29;20142;-80
2021/11/17 15:42:17;;;;;;;22.23;13.95;;;12.60;99.90;;;;;;4936873;29;20069;-81
2021/11/17 15:44:44;;;;;;;25.50;13.85;;;12.60;99.90;;;;;;4937258;29;20414;-82
2021/11/17 15:47:11;;;;;;;28.52;14.65;;;12.50;99.90;;;;;;4953935;28;20385;-81
2021/11/17 15:49:42;;;;;;;31.40;14.68;;;12.50;99.90;;;;;;4945516;29;20400;-83
2021/11/17 15:52:10;;;;;;;34.00;16.35;;;12.50;99.90;;;;;;4952775;29;20047;-84
2021/11/17 15:54:37;;;;;;;28.88;15.48;;;12.40;99.90;;;;;;4947395;28;20058;-83
2021/11/17 15:57:05;;;;;;;28.52;14.60;;;12.40;99.90;;;;;;4964861;28;20058;-82
2021/11/17 15:59:33;;;;;;;25.30;15.50;;;12.40;99.90;;;;;;4917721;29;20046;-80
2021/11/17 16:02:02;;;;;;;27.15;15.27;;;12.40;99.90;;;;;;4944240;29;20150;-80